Time;durP1;ratioP1;P1;durP2;ratioP2;P2;SDS_P1;SDS_P2;PMS_P1;PMS_P2;Temp;Humidity;BMP_temperature;BMP_pressure;BME280_temperature;BME280_humidity;BME280_pressure;Samples;Min_cycle;Max_cycle;Signal;HPM_P1;HPM_P2
2022/01/01 00:00:01;;;;;;;108.72;66.03;;;11.00;99.90;;;;;;5136532;27;20126;-66
2022/01/01 00:02:27;;;;;;;118.80;69.32;;;11.00;99.90;;;;;;5136129;27;20034;-66
2022/01/01 00:04:52;;;;;;;116.07;72.05;;;10.90;99.90;;;;;;5136526;27;20042;-66
2022/01/01 00:07:18;;;;;;;121.22;74.18;;;10.90;99.90;;;;;;5126719;28;20039;-65
2022/01/01 00:09:44;;;;;;;130.90;79.13;;;10.90;99.90;;;;;;5115627;28;20045;-66
2022/01/01 00:12:11;;;;;;;128.55;78.90;;;10.80;99.90;;;;;;5134090;27;20035;-66
2022/01/01 00:14:37;;;;;;;135.00;81.53;;;10.80;99.90;;;;;;5115714;28;20063;-66
2022/01/01 00:17:04;;;;;;;126.75;78.40;;;10.70;99.90;;;;;;5122813;27;20071;-66
2022/01/01 00:19:33;;;;;;;129.52;77.90;;;10.80;99.90;;;;;;5136374;27;20075;-66
2022/01/01 00:21:59;;;;;;;121.07;71.47;;;10.80;99.90;;;;;;5119301;27;20451;-67
2022/01/01 00:24:25;;;;;;;109.18;66.45;;;10.80;99.90;;;;;;5116880;27;20044;-66
2022/01/01 00:26:51;;;;;;;100.50;60.38;;;10.80;99.90;;;;;;5122190;27;20035;-66
2022/01/01 00:29:17;;;;;;;98.85;58.53;;;10.80;99.90;;;;;;5137410;27;20043;-66
2022/01/01 00:31:43;;;;;;;104.45;55.75;;;10.70;99.90;;;;;;5137117;27;20043;-66
2022/01/01 00:34:09;;;;;;;89.25;53.22;;;10.70;99.90;;;;;;5119449;27;20440;-66
2022/01/01 00:36:35;;;;;;;102.63;57.85;;;10.60;99.90;;;;;;5134474;27;20035;-66
2022/01/01 00:39:01;;;;;;;103.07;59.85;;;10.60;99.90;;;;;;5116310;28;20042;-67
2022/01/01 00:41:26;;;;;;;97.53;56.75;;;10.60;99.90;;;;;;5115659;28;20035;-65
2022/01/01 00:43:52;;;;;;;94.38;55.08;;;10.60;99.90;;;;;;5115918;28;20086;-66
2022/01/01 00:46:18;;;;;;;98.75;55.13;;;10.60;99.90;;;;;;5116044;27;20055;-66
2022/01/01 00:48:43;;;;;;;92.25;51.33;;;10.60;99.90;;;;;;5135500;27;20496;-66
2022/01/01 00:51:09;;;;;;;74.47;44.75;;;10.60;99.90;;;;;;5136379;27;20039;-66
2022/01/01 00:53:34;;;;;;;78.75;44.67;;;10.60;99.90;;;;;;5135855;27;20100;-66
2022/01/01 00:56:00;;;;;;;85.45;41.95;;;10.70;99.90;;;;;;5135911;27;20035;-66
2022/01/01 00:58:26;;;;;;;79.03;41.13;;;10.80;99.90;;;;;;5116857;27;20455;-66
2022/01/01 01:00:52;;;;;;;80.47;39.45;;;10.80;99.90;;;;;;5115990;28;20039;-66
2022/01/01 01:03:18;;;;;;;58.17;35.15;;;10.80;99.90;;;;;;5115381;28;20050;-66
2022/01/01 01:05:46;;;;;;;61.95;34.05;;;10.80;99.90;;;;;;5115298;28;20058;-66
2022/01/01 01:08:13;;;;;;;61.33;33.60;;;10.80;99.90;;;;;;5131964;27;20079;-67
2022/01/01 01:10:41;;;;;;;55.10;28.75;;;10.90;99.90;;;;;;5136976;27;20050;-66
2022/01/01 01:13:08;;;;;;;58.67;27.63;;;10.90;99.90;;;;;;5137895;27;20039;-66
2022/01/01 01:15:34;;;;;;;54.42;27.08;;;11.00;99.90;;;;;;5139145;27;20046;-66
2022/01/01 01:18:01;;;;;;;53.17;25.35;;;11.00;99.90;;;;;;5142108;27;20055;-66
2022/01/01 01:20:29;;;;;;;54.50;24.40;;;11.10;99.90;;;;;;5137089;27;20027;-66
2022/01/01 01:22:55;;;;;;;53.40;24.52;;;11.10;99.90;;;;;;5126193;27;20034;-65
2022/01/01 01:25:23;;;;;;;53.10;25.45;;;11.10;99.90;;;;;;5138230;27;20050;-66
2022/01/01 01:27:50;;;;;;;61.47;26.73;;;11.20;99.90;;;;;;5147839;27;20408;-64
2022/01/01 01:30:16;;;;;;;59.42;27.20;;;11.20;99.90;;;;;;5136877;27;20058;-65
2022/01/01 01:32:43;;;;;;;59.47;28.45;;;11.20;99.90;;;;;;5132590;27;20039;-66
2022/01/01 01:35:10;;;;;;;63.65;30.30;;;11.20;99.90;;;;;;5157238;27;20095;-66
2022/01/01 01:37:36;;;;;;;63.05;32.25;;;11.20;99.90;;;;;;5137028;27;20045;-66
2022/01/01 01:40:03;;;;;;;68.25;34.88;;;11.20;99.90;;;;;;5146166;27;20027;-66
2022/01/01 01:42:30;;;;;;;61.85;34.17;;;11.20;99.90;;;;;;5139418;27;20035;-64
2022/01/01 01:44:58;;;;;;;72.97;35.30;;;11.20;99.90;;;;;;5136381;27;20058;-64
2022/01/01 01:47:34;;;;;;;69.53;35.38;;;11.20;99.90;;;;;;5126501;27;20124;-64
2022/01/01 01:50:03;;;;;;;74.03;38.25;;;11.20;99.90;;;;;;5147190;27;20463;-64
2022/01/01 01:52:33;;;;;;;90.78;38.97;;;11.20;99.90;;;;;;5150679;27;20644;-64
2022/01/01 01:55:05;;;;;;;72.60;38.35;;;11.20;99.90;;;;;;5144970;27;20040;-65
2022/01/01 01:57:32;;;;;;;75.88;40.72;;;11.10;99.90;;;;;;5130732;27;20576;-66
2022/01/01 01:59:57;;;;;;;75.00;39.78;;;11.10;99.90;;;;;;5132538;27;20035;-66
2022/01/01 02:02:23;;;;;;;82.10;45.15;;;11.00;99.90;;;;;;5138584;27;20038;-66
2022/01/01 02:04:49;;;;;;;80.53;45.60;;;11.00;99.90;;;;;;5138634;27;20039;-65
2022/01/01 02:07:14;;;;;;;96.95;50.67;;;11.00;99.90;;;;;;5137906;27;20077;-66
2022/01/01 02:09:40;;;;;;;91.88;52.85;;;10.90;99.90;;;;;;5157420;27;20422;-66
2022/01/01 02:12:07;;;;;;;93.15;51.17;;;10.80;99.90;;;;;;5138804;27;20035;-66
2022/01/01 02:17:24;;;;;;;104.55;53.30;;;10.80;99.90;;;;;;5128851;27;20151;-65
2022/01/01 02:19:59;;;;;;;95.75;54.67;;;10.70;99.90;;;;;;5135988;27;20409;-65
2022/01/01 02:22:48;;;;;;;97.35;52.75;;;10.60;99.90;;;;;;5139077;27;20366;-65
2022/01/01 02:25:16;;;;;;;94.10;54.78;;;10.60;99.90;;;;;;5156727;27;20046;-66
2022/01/01 02:27:42;;;;;;;99.05;54.50;;;10.50;99.90;;;;;;5126639;27;20065;-66
2022/01/01 02:30:11;;;;;;;102.38;55.88;;;10.50;99.90;;;;;;5117942;27;20057;-65
2022/01/01 02:32:37;;;;;;;96.22;53.42;;;10.50;99.90;;;;;;5117521;27;20050;-66
2022/01/01 02:35:09;;;;;;;103.57;54.85;;;10.50;99.90;;;;;;5117028;27;20039;-65
2022/01/01 02:37:35;;;;;;;108.53;58.50;;;10.50;99.90;;;;;;5117573;27;20043;-65
2022/01/01 02:40:02;;;;;;;99.47;56.33;;;10.40;99.90;;;;;;5117585;27;20122;-65
2022/01/01 02:42:28;;;;;;;108.00;57.10;;;10.40;99.90;;;;;;5135869;27;20077;-65
2022/01/01 02:44:54;;;;;;;104.57;58.80;;;10.40;99.90;;;;;;5117512;27;20348;-65
2022/01/01 02:47:21;;;;;;;111.93;60.75;;;10.40;99.90;;;;;;5117634;27;20038;-65
2022/01/01 02:49:46;;;;;;;102.93;56.83;;;10.40;99.90;;;;;;5100117;27;20043;-65
2022/01/01 02:52:12;;;;;;;106.75;58.35;;;10.40;99.90;;;;;;5135575;27;20050;-65
2022/01/01 02:54:38;;;;;;;106.03;58.05;;;10.50;99.90;;;;;;5117509;27;20052;-65
2022/01/01 02:57:04;;;;;;;107.85;60.25;;;10.50;99.90;;;;;;5141575;27;20052;-65
2022/01/01 02:59:29;;;;;;;111.93;61.92;;;10.60;99.90;;;;;;5138137;27;20501;-65
2022/01/01 03:01:55;;;;;;;105.68;61.08;;;10.60;99.90;;;;;;5155853;27;20047;-65
2022/01/01 03:04:21;;;;;;;109.97;60.75;;;10.70;99.90;;;;;;5156175;27;20064;-65
2022/01/01 03:06:53;;;;;;;119.75;62.08;;;10.70;99.90;;;;;;5155228;27;20412;-65
2022/01/01 03:09:19;;;;;;;108.22;58.70;;;10.80;99.90;;;;;;5137404;27;20117;-64
2022/01/01 03:11:45;;;;;;;111.30;60.35;;;10.80;99.90;;;;;;5137699;27;20053;-66
2022/01/01 03:14:12;;;;;;;101.20;57.63;;;10.90;99.90;;;;;;5137382;27;20051;-65
2022/01/01 03:16:37;;;;;;;108.53;58.80;;;10.90;99.90;;;;;;5155978;27;20043;-65
2022/01/01 03:19:03;;;;;;;105.13;56.95;;;10.90;99.90;;;;;;5156077;27;20053;-65
2022/01/01 03:21:29;;;;;;;107.22;57.97;;;10.90;99.90;;;;;;5156036;27;20034;-65
2022/01/01 03:23:54;;;;;;;108.72;55.40;;;10.90;99.90;;;;;;5137562;27;20034;-65
2022/01/01 03:26:20;;;;;;;99.20;55.83;;;11.00;99.90;;;;;;5156029;27;20030;-65
2022/01/01 03:28:45;;;;;;;97.05;55.55;;;11.00;99.90;;;;;;5117289;28;20333;-65
2022/01/01 03:31:11;;;;;;;102.32;55.65;;;11.00;99.90;;;;;;5116628;28;20082;-65
2022/01/01 03:33:37;;;;;;;95.32;54.85;;;11.00;99.90;;;;;;5099922;28;20050;-65
2022/01/01 03:36:03;;;;;;;108.30;56.25;;;11.00;99.90;;;;;;5135230;27;20068;-66
2022/01/01 03:38:29;;;;;;;100.72;56.10;;;11.00;99.90;;;;;;5152839;27;20111;-66
2022/01/01 03:40:55;;;;;;;105.25;54.80;;;11.00;99.90;;;;;;5155551;27;20042;-65
2022/01/01 03:43:21;;;;;;;94.90;53.42;;;11.00;99.90;;;;;;5137458;27;20038;-65
2022/01/01 03:45:46;;;;;;;93.45;52.95;;;11.10;99.90;;;;;;5137254;27;20042;-65
2022/01/01 03:48:12;;;;;;;90.60;53.03;;;11.10;99.90;;;;;;5124849;27;20073;-64
2022/01/01 03:50:37;;;;;;;92.90;51.25;;;11.10;99.90;;;;;;5121527;27;20140;-65
2022/01/01 03:53:03;;;;;;;100.28;53.10;;;11.10;99.90;;;;;;5139305;27;20035;-66
2022/01/01 03:55:29;;;;;;;86.75;49.05;;;11.10;99.90;;;;;;5139024;27;20443;-65
2022/01/01 03:57:55;;;;;;;94.15;50.58;;;11.10;99.90;;;;;;5139183;27;20394;-65
2022/01/01 04:00:20;;;;;;;85.78;49.17;;;11.10;99.90;;;;;;5139080;27;20031;-65
2022/01/01 04:02:46;;;;;;;81.28;44.28;;;11.10;99.90;;;;;;5138611;27;20520;-66
2022/01/01 04:05:12;;;;;;;88.50;46.85;;;11.20;99.90;;;;;;5138530;27;20051;-65
2022/01/01 04:07:37;;;;;;;82.45;48.28;;;11.20;99.90;;;;;;5120984;27;20071;-65
2022/01/01 04:10:03;;;;;;;82.75;48.38;;;11.30;99.90;;;;;;5138692;27;20387;-66
2022/01/01 04:12:29;;;;;;;89.95;48.53;;;11.30;99.90;;;;;;5120471;27;20084;-65
2022/01/01 04:14:57;;;;;;;85.85;48.60;;;11.30;99.90;;;;;;5116728;28;20059;-65
2022/01/01 04:17:22;;;;;;;104.60;47.30;;;11.20;99.90;;;;;;5117465;27;20451;-65
2022/01/01 04:19:48;;;;;;;91.45;48.42;;;11.20;99.90;;;;;;5116813;28;20048;-65
2022/01/01 04:22:16;;;;;;;95.18;49.17;;;11.20;99.90;;;;;;5118720;27;20043;-65
2022/01/01 04:24:42;;;;;;;82.80;46.35;;;11.20;99.90;;;;;;5138575;27;20066;-65
2022/01/01 04:27:08;;;;;;;89.95;49.47;;;11.20;99.90;;;;;;5131277;27;20047;-65
2022/01/01 04:29:34;;;;;;;87.82;48.47;;;11.30;99.90;;;;;;5117877;28;20096;-65
2022/01/01 04:32:00;;;;;;;86.78;47.10;;;11.30;99.90;;;;;;5116496;28;20388;-65
2022/01/01 04:34:26;;;;;;;88.57;47.15;;;11.20;99.90;;;;;;5116901;28;20051;-65
2022/01/01 04:37:35;;;;;;;90.38;46.92;;;11.20;99.90;;;;;;5119887;27;20325;-65
2022/01/01 04:39:41;;;;;;;83.82;46.25;;;11.30;99.90;;;;;;5129208;27;20058;-65
2022/01/01 04:42:08;;;;;;;89.15;46.47;;;11.30;99.90;;;;;;5119844;27;20031;-65
2022/01/01 04:44:33;;;;;;;83.97;43.45;;;11.20;99.90;;;;;;5136955;27;20039;-65
2022/01/01 04:46:59;;;;;;;79.70;42.92;;;11.30;99.90;;;;;;5135655;27;20483;-66
2022/01/01 04:49:25;;;;;;;80.50;40.75;;;11.30;99.90;;;;;;5136689;27;20050;-65
2022/01/01 04:51:50;;;;;;;71.30;39.50;;;11.40;99.90;;;;;;5137812;27;20035;-66
2022/01/01 04:54:17;;;;;;;80.38;40.60;;;11.40;99.90;;;;;;5136814;27;20035;-65
2022/01/01 04:56:44;;;;;;;72.15;37.20;;;11.50;99.90;;;;;;5135627;27;20046;-66
2022/01/01 04:59:11;;;;;;;72.10;35.78;;;11.50;99.90;;;;;;5116108;28;20527;-65
2022/01/01 05:01:38;;;;;;;79.57;35.67;;;11.50;99.90;;;;;;5116838;28;20436;-65
2022/01/01 05:04:04;;;;;;;72.70;35.30;;;11.50;99.90;;;;;;5116236;28;20527;-66
2022/01/01 05:06:30;;;;;;;72.25;33.85;;;11.40;99.90;;;;;;5117434;27;20523;-65
2022/01/01 05:08:56;;;;;;;68.55;32.78;;;11.40;99.90;;;;;;5136163;27;20463;-65
2022/01/01 05:11:21;;;;;;;69.00;32.58;;;11.40;99.90;;;;;;5136634;27;20459;-65
2022/01/01 05:13:47;;;;;;;62.08;29.30;;;11.40;99.90;;;;;;5145366;27;20050;-65
2022/01/01 05:16:17;;;;;;;58.28;27.63;;;11.60;99.90;;;;;;5139995;27;20047;-66
2022/01/01 05:18:43;;;;;;;61.53;27.05;;;11.50;99.90;;;;;;5138957;27;20043;-66
2022/01/01 05:21:08;;;;;;;53.53;27.33;;;11.50;99.90;;;;;;5140416;27;20099;-65
2022/01/01 05:23:34;;;;;;;59.58;25.58;;;11.50;99.90;;;;;;5140333;27;20066;-65
2022/01/01 05:26:00;;;;;;;57.00;25.48;;;11.50;99.90;;;;;;5140013;27;20042;-65
2022/01/01 05:28:25;;;;;;;53.35;24.42;;;11.50;99.90;;;;;;5138893;27;20041;-66
2022/01/01 05:30:51;;;;;;;54.63;22.48;;;11.50;99.90;;;;;;5140122;27;20031;-65
2022/01/01 05:33:17;;;;;;;50.83;22.08;;;11.60;99.90;;;;;;5158545;27;20101;-65
2022/01/01 05:35:42;;;;;;;48.95;21.10;;;11.60;99.90;;;;;;5122349;27;20039;-65
2022/01/01 05:38:08;;;;;;;46.72;21.23;;;11.70;99.90;;;;;;5139013;27;20041;-65
2022/01/01 05:40:34;;;;;;;50.60;19.90;;;11.70;99.90;;;;;;5139389;27;20125;-66
2022/01/01 05:42:59;;;;;;;45.83;20.63;;;11.70;99.90;;;;;;5157924;27;20030;-65
2022/01/01 05:45:25;;;;;;;42.08;18.27;;;11.70;99.90;;;;;;5139691;27;20050;-66
2022/01/01 05:47:51;;;;;;;49.70;20.60;;;11.80;99.90;;;;;;5120973;27;20104;-66
2022/01/01 05:50:20;;;;;;;43.90;19.63;;;11.70;99.90;;;;;;5139277;27;20050;-65
2022/01/01 05:52:46;;;;;;;41.22;18.95;;;11.70;99.90;;;;;;5157257;27;20053;-65
2022/01/01 05:55:12;;;;;;;46.65;17.65;;;11.80;99.90;;;;;;5157571;27;20082;-65
2022/01/01 05:57:38;;;;;;;41.38;17.90;;;11.80;99.90;;;;;;5156220;27;20121;-65
2022/01/01 06:00:07;;;;;;;42.30;18.13;;;11.80;99.90;;;;;;5139499;27;20109;-67
2022/01/01 06:02:41;;;;;;;46.90;17.77;;;11.70;99.90;;;;;;5157179;27;20358;-65
2022/01/01 06:05:07;;;;;;;44.05;17.83;;;11.70;99.90;;;;;;5122024;27;20041;-66
2022/01/01 06:07:32;;;;;;;43.42;17.65;;;11.70;99.90;;;;;;5138328;27;20030;-65
2022/01/01 06:09:59;;;;;;;48.22;16.98;;;11.70;99.90;;;;;;5138684;27;20498;-65
2022/01/01 06:12:25;;;;;;;45.33;18.20;;;11.60;99.90;;;;;;5157437;27;20122;-66
2022/01/01 06:14:51;;;;;;;40.63;17.55;;;11.60;99.90;;;;;;5135342;27;20112;-65
2022/01/01 06:17:17;;;;;;;41.15;16.98;;;11.60;99.90;;;;;;5129286;27;20039;-65
2022/01/01 06:19:42;;;;;;;37.38;17.52;;;11.60;99.90;;;;;;5114896;28;20504;-65
2022/01/01 06:22:08;;;;;;;41.92;17.77;;;11.60;99.90;;;;;;5116097;28;20096;-65
2022/01/01 06:24:33;;;;;;;43.83;18.23;;;11.60;99.90;;;;;;5115740;28;20448;-65
2022/01/01 06:26:59;;;;;;;45.92;18.25;;;11.60;99.90;;;;;;5115872;27;20039;-65
2022/01/01 06:29:25;;;;;;;49.03;18.98;;;11.60;99.90;;;;;;5114718;28;20044;-65
2022/01/01 06:31:50;;;;;;;39.97;17.60;;;11.60;99.90;;;;;;5115812;28;20110;-65
2022/01/01 06:34:16;;;;;;;38.63;18.23;;;11.60;99.90;;;;;;5114587;28;20044;-65
2022/01/01 06:36:42;;;;;;;48.15;18.92;;;11.60;99.90;;;;;;5116309;27;20046;-65
2022/01/01 06:39:07;;;;;;;42.28;18.13;;;11.60;99.90;;;;;;5114929;28;20348;-66
2022/01/01 06:41:33;;;;;;;38.30;17.83;;;11.60;99.90;;;;;;5114396;28;20479;-66
2022/01/01 06:43:58;;;;;;;37.45;18.15;;;11.60;99.90;;;;;;5114630;28;20051;-65
2022/01/01 06:46:24;;;;;;;43.83;18.48;;;11.60;99.90;;;;;;5114078;28;20058;-65
2022/01/01 06:48:50;;;;;;;38.92;17.55;;;11.60;99.90;;;;;;5115712;27;20051;-65
2022/01/01 06:51:16;;;;;;;38.20;19.23;;;11.60;99.90;;;;;;5115484;28;20035;-65
2022/01/01 06:53:42;;;;;;;43.97;19.10;;;11.70;99.90;;;;;;5114399;28;20376;-65
2022/01/01 06:56:07;;;;;;;41.55;18.10;;;11.60;99.90;;;;;;5113825;28;20044;-65
2022/01/01 06:58:38;;;;;;;37.92;18.25;;;11.60;99.90;;;;;;5114522;27;20063;-66
2022/01/01 07:01:04;;;;;;;39.55;19.55;;;11.60;99.90;;;;;;5114296;28;20043;-67
2022/01/01 07:03:30;;;;;;;43.53;19.02;;;11.60;99.90;;;;;;5113940;28;20053;-65
2022/01/01 07:05:55;;;;;;;41.63;20.13;;;11.60;99.90;;;;;;5114064;28;20049;-65
2022/01/01 07:08:21;;;;;;;39.42;18.90;;;11.60;99.90;;;;;;5128404;27;20042;-65
2022/01/01 07:10:46;;;;;;;46.33;19.90;;;11.70;99.90;;;;;;5135373;27;20432;-65
2022/01/01 07:13:13;;;;;;;37.25;19.95;;;11.70;99.90;;;;;;5136938;27;20059;-65
2022/01/01 07:15:39;;;;;;;43.88;20.60;;;11.70;99.90;;;;;;5137430;27;20043;-65
2022/01/01 07:18:05;;;;;;;41.03;20.92;;;11.70;99.90;;;;;;5125018;27;20043;-65
2022/01/01 07:20:31;;;;;;;47.55;20.95;;;11.70;99.90;;;;;;5135109;27;20091;-65
2022/01/01 07:22:56;;;;;;;36.78;20.58;;;11.70;99.90;;;;;;5124492;27;20038;-65
2022/01/01 07:25:22;;;;;;;39.03;20.85;;;11.80;99.90;;;;;;5137418;27;20045;-65
2022/01/01 07:27:48;;;;;;;40.50;20.42;;;11.80;99.90;;;;;;5127796;28;20169;-66
2022/01/01 07:30:13;;;;;;;41.78;22.50;;;11.80;99.90;;;;;;5117309;28;20407;-65
2022/01/01 07:32:41;;;;;;;43.35;22.60;;;11.80;99.90;;;;;;5117056;28;20359;-65
2022/01/01 07:35:08;;;;;;;42.85;22.27;;;11.90;99.90;;;;;;5116778;28;20047;-65
2022/01/01 07:37:33;;;;;;;44.33;21.88;;;11.90;99.90;;;;;;5117735;28;20372;-65
2022/01/01 07:39:59;;;;;;;42.50;23.45;;;11.90;99.90;;;;;;5117335;28;20027;-65
2022/01/01 07:42:24;;;;;;;46.08;22.88;;;12.00;99.90;;;;;;5117190;28;20031;-66
2022/01/01 07:44:50;;;;;;;41.53;22.45;;;12.00;99.90;;;;;;5117426;28;20039;-65
2022/01/01 07:47:16;;;;;;;45.17;23.20;;;12.00;99.90;;;;;;5136069;27;20035;-65
2022/01/01 07:49:42;;;;;;;44.67;22.88;;;12.10;99.90;;;;;;5117017;28;20039;-66
2022/01/01 07:52:08;;;;;;;44.63;22.17;;;12.10;99.90;;;;;;5116720;28;20047;-65
2022/01/01 07:54:34;;;;;;;42.50;22.40;;;12.00;99.90;;;;;;5135137;27;20078;-65
2022/01/01 07:56:59;;;;;;;52.10;23.50;;;12.10;99.90;;;;;;5101647;27;20075;-65
2022/01/01 07:59:25;;;;;;;42.90;22.67;;;12.10;99.90;;;;;;5137540;27;20041;-66
2022/01/01 08:01:51;;;;;;;43.70;22.40;;;12.10;99.90;;;;;;5137358;27;20121;-65
2022/01/01 08:04:16;;;;;;;41.33;22.50;;;12.20;99.90;;;;;;5137810;27;20423;-65
2022/01/01 08:06:42;;;;;;;44.13;22.35;;;12.10;99.90;;;;;;5136719;27;20403;-65
2022/01/01 08:09:08;;;;;;;38.00;21.50;;;12.10;99.90;;;;;;5155193;27;20046;-65
2022/01/01 08:11:33;;;;;;;39.33;22.83;;;12.10;99.90;;;;;;5137069;27;20034;-65
2022/01/01 08:13:59;;;;;;;46.45;21.60;;;12.10;99.90;;;;;;5137124;27;20093;-65
2022/01/01 08:16:24;;;;;;;38.53;22.35;;;12.20;99.90;;;;;;5136617;27;20047;-65
2022/01/01 08:18:50;;;;;;;44.13;21.38;;;12.20;99.90;;;;;;5154475;27;20043;-65
2022/01/01 08:21:16;;;;;;;44.03;21.30;;;12.30;99.90;;;;;;5155102;27;20465;-65
2022/01/01 08:23:41;;;;;;;42.33;21.83;;;12.10;99.90;;;;;;5137119;27;20034;-65
2022/01/01 08:26:07;;;;;;;43.05;21.35;;;12.20;99.90;;;;;;5155407;27;20049;-66
2022/01/01 08:28:33;;;;;;;37.42;19.75;;;12.30;99.90;;;;;;5139573;27;20035;-65
2022/01/01 08:30:59;;;;;;;36.25;20.52;;;12.30;99.90;;;;;;5134694;28;20123;-65
2022/01/01 08:33:25;;;;;;;39.75;20.65;;;12.30;99.90;;;;;;5116584;28;20081;-66
2022/01/01 08:35:50;;;;;;;39.67;20.65;;;12.40;99.90;;;;;;5129920;27;20046;-66
2022/01/01 08:38:16;;;;;;;35.08;19.83;;;12.30;99.90;;;;;;5154161;27;20105;-65
2022/01/01 08:40:42;;;;;;;33.90;19.38;;;12.30;99.90;;;;;;5153444;27;20033;-65
2022/01/01 08:43:08;;;;;;;32.67;17.30;;;12.30;99.90;;;;;;5157540;27;20436;-66
2022/01/01 08:45:38;;;;;;;33.47;17.67;;;12.40;99.90;;;;;;5131588;27;20031;-65
2022/01/01 08:48:05;;;;;;;31.75;17.25;;;12.40;99.90;;;;;;5129477;27;21440;-66
2022/01/01 08:50:31;;;;;;;28.52;16.77;;;12.30;99.90;;;;;;5149695;27;20039;-65
2022/01/01 08:52:57;;;;;;;34.25;16.95;;;12.40;99.90;;;;;;5123093;27;20039;-66
2022/01/01 08:55:24;;;;;;;31.30;15.95;;;12.40;99.90;;;;;;5135146;27;20087;-65
2022/01/01 08:57:50;;;;;;;35.75;17.25;;;12.30;99.90;;;;;;5152067;27;20375;-65
2022/01/01 09:00:16;;;;;;;32.85;16.95;;;12.30;99.90;;;;;;5149107;27;20039;-65
2022/01/01 09:02:42;;;;;;;31.50;16.02;;;12.40;99.90;;;;;;5152339;27;20095;-65
2022/01/01 09:05:10;;;;;;;35.33;15.93;;;12.40;99.90;;;;;;5133974;27;20039;-66
2022/01/01 09:07:36;;;;;;;33.88;15.95;;;12.40;99.90;;;;;;5157784;27;20105;-66
2022/01/01 09:10:04;;;;;;;25.60;13.55;;;12.50;99.90;;;;;;5140193;27;20502;-65
2022/01/01 09:12:30;;;;;;;27.90;13.52;;;12.50;99.90;;;;;;5135940;27;20039;-65
2022/01/01 09:14:56;;;;;;;27.48;13.48;;;12.50;99.90;;;;;;5135357;27;20073;-65
2022/01/01 09:17:23;;;;;;;29.08;13.63;;;12.60;99.90;;;;;;5127457;27;20372;-65
2022/01/01 09:19:48;;;;;;;22.98;13.23;;;12.60;99.90;;;;;;5134293;27;20454;-66
2022/01/01 09:22:14;;;;;;;23.05;11.20;;;12.70;99.90;;;;;;5113458;27;20051;-65
2022/01/01 09:24:42;;;;;;;22.05;12.18;;;12.70;99.90;;;;;;5129808;27;20051;-65
2022/01/01 09:27:08;;;;;;;22.23;11.68;;;12.70;99.90;;;;;;5131269;27;20062;-66
2022/01/01 09:29:33;;;;;;;23.45;12.02;;;12.70;99.90;;;;;;5132758;27;20460;-66
2022/01/01 09:31:59;;;;;;;22.98;11.98;;;12.80;99.90;;;;;;5117707;27;20054;-65
2022/01/01 09:34:25;;;;;;;23.75;11.65;;;12.90;99.90;;;;;;5133291;27;20027;-65
2022/01/01 09:36:54;;;;;;;21.30;10.50;;;12.90;99.90;;;;;;5129990;27;20043;-65
2022/01/01 09:39:20;;;;;;;23.67;11.32;;;13.00;99.90;;;;;;5131061;27;20035;-66
2022/01/01 09:41:46;;;;;;;20.25;10.65;;;13.00;99.90;;;;;;5135627;27;20035;-65
2022/01/01 09:44:14;;;;;;;21.92;11.38;;;13.00;99.90;;;;;;5135769;27;20039;-65
2022/01/01 09:46:42;;;;;;;28.70;13.25;;;13.00;99.90;;;;;;5136463;27;20043;-65
2022/01/01 09:49:08;;;;;;;26.58;12.20;;;13.00;99.90;;;;;;5132432;27;20039;-65
2022/01/01 09:51:35;;;;;;;19.95;12.38;;;13.00;99.90;;;;;;5132128;27;20043;-65
2022/01/01 09:54:01;;;;;;;22.25;12.38;;;13.00;99.90;;;;;;5135726;27;20050;-65
2022/01/01 09:56:26;;;;;;;22.88;11.50;;;12.90;99.90;;;;;;5129887;27;20035;-63
2022/01/01 09:58:52;;;;;;;24.33;12.82;;;12.90;99.90;;;;;;5126636;27;20056;-65
2022/01/01 10:01:18;;;;;;;22.77;12.48;;;12.90;99.90;;;;;;5127122;27;20031;-65
2022/01/01 10:03:48;;;;;;;26.60;15.00;;;12.90;99.90;;;;;;5136045;27;20501;-65
2022/01/01 10:06:26;;;;;;;22.65;11.85;;;12.80;99.90;;;;;;5135833;27;20057;-65
2022/01/01 10:09:03;;;;;;;23.23;11.32;;;12.80;99.90;;;;;;5135334;27;20127;-65
2022/01/01 10:11:30;;;;;;;22.50;10.43;;;12.80;99.90;;;;;;5134576;27;20039;-66
2022/01/01 10:13:56;;;;;;;19.95;11.05;;;12.80;99.90;;;;;;5134245;27;20065;-66
2022/01/01 10:16:22;;;;;;;18.95;9.38;;;12.80;99.90;;;;;;5133959;27;20043;-67
2022/01/01 10:18:51;;;;;;;17.75;9.20;;;12.70;99.90;;;;;;5130414;27;20114;-66
2022/01/01 10:21:22;;;;;;;18.63;9.77;;;12.70;99.90;;;;;;5135582;27;20031;-66
2022/01/01 10:23:52;;;;;;;17.50;8.43;;;12.70;99.90;;;;;;5129901;27;20042;-64
2022/01/01 10:29:26;;;;;;;20.90;8.23;;;12.70;99.90;;;;;;5133272;27;20134;-66
2022/01/01 10:31:59;;;;;;;14.70;7.55;;;12.70;99.90;;;;;;5132771;27;20121;-66
2022/01/01 10:34:28;;;;;;;16.75;7.55;;;12.70;99.90;;;;;;5133935;27;20134;-67
2022/01/01 10:36:54;;;;;;;16.00;7.80;;;12.70;99.90;;;;;;5132758;27;20114;-66
2022/01/01 10:39:21;;;;;;;14.18;7.00;;;12.70;99.90;;;;;;5133066;27;20106;-66
2022/01/01 10:41:47;;;;;;;15.80;7.00;;;12.80;99.90;;;;;;5133906;27;20046;-66
2022/01/01 10:44:13;;;;;;;16.35;6.18;;;12.70;99.90;;;;;;5134262;27;20031;-67
2022/01/01 10:46:40;;;;;;;14.52;6.50;;;12.70;99.90;;;;;;5133811;27;20051;-66
2022/01/01 10:49:34;;;;;;;11.88;6.10;;;12.70;99.90;;;;;;5133211;27;20050;-67
2022/01/01 10:52:24;;;;;;;14.43;6.28;;;12.70;99.90;;;;;;5127725;27;20069;-66
2022/01/01 10:54:52;;;;;;;14.07;5.85;;;12.70;99.90;;;;;;5128793;27;20043;-66
2022/01/01 10:57:23;;;;;;;14.45;7.00;;;12.70;99.90;;;;;;5129362;27;20395;-66
2022/01/01 10:59:50;;;;;;;17.05;6.20;;;12.70;99.90;;;;;;5132747;27;20122;-67
2022/01/01 11:02:19;;;;;;;11.50;5.82;;;12.60;99.90;;;;;;5118759;27;20040;-67
2022/01/01 11:04:45;;;;;;;14.38;6.15;;;12.70;99.90;;;;;;5118560;27;20051;-66
2022/01/01 11:07:10;;;;;;;16.20;6.25;;;12.70;99.90;;;;;;5124854;27;20115;-63
2022/01/01 11:09:37;;;;;;;14.00;6.28;;;12.70;99.90;;;;;;5134481;27;20077;-66
2022/01/01 11:12:04;;;;;;;13.85;6.10;;;12.70;99.90;;;;;;5133705;27;20409;-67
2022/01/01 11:14:32;;;;;;;15.68;6.30;;;12.80;99.90;;;;;;5148496;27;20125;-66
2022/01/01 11:17:00;;;;;;;14.82;6.30;;;12.80;99.90;;;;;;5154127;27;20146;-67
2022/01/01 11:19:26;;;;;;;16.20;5.93;;;12.80;99.90;;;;;;5154960;27;20055;-67
2022/01/01 11:21:53;;;;;;;11.05;6.07;;;12.80;99.90;;;;;;5141022;27;20037;-66
2022/01/01 11:24:21;;;;;;;19.40;6.40;;;12.80;99.90;;;;;;5154055;27;20030;-66
2022/01/01 11:26:49;;;;;;;13.27;5.80;;;12.90;99.90;;;;;;5119566;27;20052;-67
2022/01/01 11:29:15;;;;;;;16.10;5.95;;;13.00;99.90;;;;;;5148319;27;20420;-67
2022/01/01 11:31:44;;;;;;;12.10;5.43;;;13.00;99.90;;;;;;5136061;27;20502;-67
2022/01/01 11:34:12;;;;;;;16.35;6.43;;;13.00;99.90;;;;;;5154803;27;20074;-66
2022/01/01 11:36:38;;;;;;;16.55;6.25;;;13.10;99.90;;;;;;5136169;27;20395;-67
2022/01/01 11:39:14;;;;;;;14.93;5.68;;;13.10;99.90;;;;;;5135973;27;20034;-67
2022/01/01 11:41:42;;;;;;;16.30;6.30;;;13.10;99.90;;;;;;5119681;27;20038;-67
2022/01/01 11:44:42;;;;;;;14.85;6.07;;;13.20;99.90;;;;;;5137008;27;20042;-67
2022/01/01 11:47:19;;;;;;;12.45;6.55;;;13.20;99.90;;;;;;5090375;27;20115;-67
2022/01/01 11:49:45;;;;;;;17.40;6.40;;;13.20;99.90;;;;;;5133833;28;20047;-67
2022/01/01 11:52:12;;;;;;;16.30;6.32;;;13.20;99.90;;;;;;5134330;28;20118;-67
2022/01/01 11:54:42;;;;;;;13.00;6.72;;;13.20;99.90;;;;;;5116041;28;20441;-68
2022/01/01 11:57:26;;;;;;;15.55;6.03;;;13.20;99.90;;;;;;5134569;27;20091;-68
2022/01/01 11:59:58;;;;;;;13.45;5.65;;;13.30;99.90;;;;;;5115758;28;20217;-65
2022/01/01 12:02:24;;;;;;;11.45;6.43;;;13.30;99.90;;;;;;5115821;28;20529;-66
2022/01/01 12:04:55;;;;;;;14.25;6.72;;;13.30;99.90;;;;;;5116346;28;20043;-66
2022/01/01 12:07:21;;;;;;;14.82;6.50;;;13.30;99.90;;;;;;5102226;27;20034;-67
2022/01/01 12:10:11;;;;;;;14.18;5.95;;;13.30;99.90;;;;;;5158579;27;20107;-67
2022/01/01 12:12:44;;;;;;;18.63;6.38;;;13.30;99.90;;;;;;5140413;27;20174;-67
2022/01/01 12:15:26;;;;;;;10.32;6.10;;;13.30;99.90;;;;;;5158458;27;20089;-66
2022/01/01 12:17:53;;;;;;;11.48;5.95;;;13.30;99.90;;;;;;5131799;27;20074;-66
2022/01/01 12:20:22;;;;;;;12.13;6.10;;;13.20;99.90;;;;;;5120186;27;20058;-65
2022/01/01 12:22:50;;;;;;;14.90;6.07;;;13.30;99.90;;;;;;5144910;27;20046;-67
2022/01/01 12:25:24;;;;;;;14.93;6.00;;;13.30;99.90;;;;;;5158660;27;20042;-65
2022/01/01 12:27:51;;;;;;;;;;;13.30;99.90;;;;;;5132688;27;20043;-67
2022/01/01 12:30:40;;;;;;;13.27;5.63;;;13.30;99.90;;;;;;5119523;27;20336;-66
2022/01/01 12:33:07;;;;;;;14.07;6.25;;;13.40;99.90;;;;;;5119523;27;20039;-66